createdAt,value
2023-06-11T00:00:27.921Z,4.40
2023-06-11T00:02:58.691Z,5.27
2023-06-11T00:05:29.252Z,5.60
2023-06-11T00:08:01.418Z,4.63
2023-06-11T00:10:29.542Z,4.20
2023-06-11T00:12:57.368Z,5.87
2023-06-11T00:15:25.172Z,5.43
2023-06-11T00:17:53.977Z,4.47
2023-06-11T00:20:22.049Z,3.90
2023-06-11T00:22:51.208Z,4.07
2023-06-11T00:25:19.631Z,4.20
2023-06-11T00:27:47.363Z,4.10
2023-06-11T00:30:17.906Z,4.40
2023-06-11T00:32:47.156Z,3.87
2023-06-11T00:35:15.299Z,5.10
2023-06-11T00:37:43.208Z,4.33
2023-06-11T00:40:13.383Z,4.30
2023-06-11T00:42:41.487Z,4.37
2023-06-11T00:45:10.164Z,5.07
2023-06-11T00:47:40.829Z,3.80
2023-06-11T00:50:09.656Z,4.00
2023-06-11T00:52:37.941Z,4.10
2023-06-11T00:55:06.782Z,4.20
2023-06-11T00:57:36.689Z,5.50
2023-06-11T01:00:08.985Z,5.87
2023-06-11T01:02:38.720Z,4.03
2023-06-11T01:05:09.209Z,4.17
2023-06-11T01:07:42.328Z,4.37
2023-06-11T01:10:13.198Z,3.77
2023-06-11T01:12:42.786Z,3.60
2023-06-11T01:15:15.568Z,3.40
2023-06-11T01:17:46.479Z,3.27
2023-06-11T01:20:16.741Z,3.50
2023-06-11T01:23:05.696Z,3.60
2023-06-11T01:25:39.768Z,3.73
2023-06-11T01:28:10.455Z,3.87
2023-06-11T01:30:40.072Z,4.13
2023-06-11T01:33:09.457Z,4.80
2023-06-11T01:35:44.787Z,3.50
2023-06-11T01:38:12.989Z,4.93
2023-06-11T01:40:44.936Z,3.60
2023-06-11T01:43:15.840Z,3.43
2023-06-11T01:45:44.697Z,4.93
2023-06-11T01:48:12.553Z,3.63
2023-06-11T01:50:42.218Z,4.10
2023-06-11T01:53:11.854Z,3.63
2023-06-11T01:55:40.720Z,4.40
2023-06-11T01:58:08.590Z,6.10
2023-06-11T02:00:39.698Z,4.03
2023-06-11T02:03:08.040Z,3.83
2023-06-11T02:05:36.257Z,3.43
2023-06-11T02:08:04.578Z,4.13
2023-06-11T02:10:32.341Z,3.40
2023-06-11T02:13:00.201Z,3.23
2023-06-11T02:15:28.177Z,3.53
2023-06-11T02:17:57.772Z,3.47
2023-06-11T02:20:25.839Z,3.00
2023-06-11T02:22:53.620Z,3.40
2023-06-11T02:25:21.799Z,4.03
2023-06-11T02:27:50.349Z,3.57
2023-06-11T02:30:18.665Z,4.10
2023-06-11T02:32:46.888Z,4.10
2023-06-11T02:35:16.620Z,8.70
2023-06-11T02:37:44.624Z,9.20
2023-06-11T02:40:12.955Z,5.43
2023-06-11T02:42:41.026Z,3.70
2023-06-11T02:45:09.956Z,4.87
2023-06-11T02:47:38.251Z,4.10
2023-06-11T02:50:06.733Z,4.80
2023-06-11T02:52:36.397Z,3.60
2023-06-11T02:55:04.207Z,3.30
2023-06-11T02:57:31.953Z,3.50
2023-06-11T03:00:01.709Z,8.20
2023-06-11T03:02:30.031Z,4.53
2023-06-11T03:05:20.030Z,3.93
2023-06-11T03:07:50.006Z,4.00
2023-06-11T03:10:18.569Z,3.90
2023-06-11T03:12:46.459Z,3.87
2023-06-11T03:15:14.709Z,4.07
2023-06-11T03:17:42.823Z,10.63
2023-06-11T03:20:11.373Z,9.17
2023-06-11T03:22:39.412Z,4.87
2023-06-11T03:25:10.160Z,7.50
2023-06-11T03:27:38.559Z,3.33
2023-06-11T03:30:07.880Z,3.73
2023-06-11T03:32:40.148Z,4.50
2023-06-11T03:35:09.697Z,3.47
2023-06-11T03:37:38.142Z,3.37
2023-06-11T03:40:08.837Z,2.93
2023-06-11T03:42:38.096Z,3.60
2023-06-11T03:45:06.813Z,4.20
2023-06-11T03:47:34.967Z,3.30
2023-06-11T03:50:05.837Z,3.20
2023-06-11T03:52:33.762Z,3.23
2023-06-11T03:55:01.966Z,3.27
2023-06-11T03:57:29.973Z,3.40
2023-06-11T03:59:59.104Z,3.07
2023-06-11T04:02:28.383Z,2.80
2023-06-11T04:04:56.810Z,3.00
2023-06-11T04:07:24.698Z,4.00
2023-06-11T04:09:52.658Z,3.20
2023-06-11T04:12:20.615Z,3.57
2023-06-11T04:14:48.530Z,3.40
2023-06-11T04:17:20.493Z,3.30
2023-06-11T04:19:48.809Z,2.87
2023-06-11T04:22:16.833Z,2.90
2023-06-11T04:24:45.622Z,2.97
2023-06-11T04:27:14.116Z,3.57
2023-06-11T04:29:45.933Z,3.43
2023-06-11T04:32:18.133Z,3.30
2023-06-11T04:34:49.779Z,3.70
2023-06-11T04:37:18.913Z,3.03
2023-06-11T04:39:48.876Z,2.90
2023-06-11T04:42:18.479Z,3.57
2023-06-11T04:44:48.860Z,3.17
2023-06-11T04:47:23.406Z,2.90
2023-06-11T04:49:55.286Z,2.73
2023-06-11T04:52:24.555Z,2.90
2023-06-11T04:54:53.374Z,3.20
2023-06-11T04:57:21.443Z,3.13
2023-06-11T04:59:50.849Z,5.17
2023-06-11T05:02:19.750Z,3.20
2023-06-11T05:04:50.674Z,3.70
2023-06-11T05:07:20.253Z,3.03
2023-06-11T05:09:49.202Z,3.33
2023-06-11T05:12:18.445Z,3.70
2023-06-11T05:14:46.576Z,3.80
2023-06-11T05:17:17.014Z,4.30
2023-06-11T05:19:47.484Z,3.40
2023-06-11T05:22:15.533Z,3.70
2023-06-11T05:24:44.600Z,2.87
2023-06-11T05:27:12.869Z,3.60
2023-06-11T05:29:44.143Z,4.90
2023-06-11T05:32:16.624Z,5.70
2023-06-11T05:34:45.315Z,4.07
2023-06-11T05:37:15.576Z,3.80
2023-06-11T05:39:45.063Z,4.00
2023-06-11T05:42:12.943Z,3.30
2023-06-11T05:44:43.246Z,4.07
2023-06-11T05:47:12.287Z,3.80
2023-06-11T05:49:40.585Z,3.63
2023-06-11T05:52:09.537Z,4.27
2023-06-11T05:54:37.773Z,3.40
2023-06-11T05:57:09.237Z,4.60
2023-06-11T05:59:38.840Z,4.10
2023-06-11T06:02:07.510Z,5.30
2023-06-11T06:04:35.641Z,4.37
2023-06-11T06:07:03.608Z,3.73
2023-06-11T06:09:31.435Z,4.33
2023-06-11T06:12:00.415Z,3.70
2023-06-11T06:14:30.226Z,5.13
2023-06-11T06:16:58.283Z,3.40
2023-06-11T06:19:31.374Z,3.23
2023-06-11T06:21:59.276Z,4.27
2023-06-11T06:24:27.069Z,4.03
2023-06-11T06:26:58.006Z,4.67
2023-06-11T06:29:33.864Z,5.60
2023-06-11T06:32:02.341Z,4.43
2023-06-11T06:34:31.026Z,3.50
2023-06-11T06:36:59.137Z,3.90
2023-06-11T06:39:27.314Z,3.60
2023-06-11T06:41:56.023Z,3.50
2023-06-11T06:44:37.111Z,4.77
2023-06-11T06:47:05.305Z,5.30
2023-06-11T06:49:34.065Z,4.30
2023-06-11T06:52:03.126Z,5.07
2023-06-11T06:54:30.954Z,3.83
2023-06-11T06:56:58.934Z,3.43
2023-06-11T06:59:27.661Z,3.80
2023-06-11T07:01:56.804Z,4.80
2023-06-11T07:04:25.623Z,5.43
2023-06-11T07:06:53.604Z,4.57
2023-06-11T07:09:22.112Z,4.10
2023-06-11T07:11:53.307Z,6.30
2023-06-11T07:14:21.365Z,5.17
2023-06-11T07:16:49.878Z,3.97
2023-06-11T07:19:19.371Z,4.03
2023-06-11T07:21:47.165Z,3.83
2023-06-11T07:24:15.378Z,4.53
2023-06-11T07:26:43.694Z,6.80
2023-06-11T07:29:13.053Z,10.30
2023-06-11T07:31:42.745Z,3.70
2023-06-11T07:34:10.480Z,3.97
2023-06-11T07:36:40.293Z,4.20
2023-06-11T07:39:08.740Z,5.43
2023-06-11T07:41:37.782Z,5.27
2023-06-11T07:44:08.511Z,4.70
2023-06-11T07:46:36.711Z,5.10
2023-06-11T07:49:05.034Z,5.70
2023-06-11T07:51:33.385Z,3.77
2023-06-11T07:56:57.775Z,4.30
2023-06-11T07:59:25.604Z,4.67
2023-06-11T08:01:54.481Z,8.17
2023-06-11T08:04:22.295Z,4.00
2023-06-11T08:06:50.490Z,3.90
2023-06-11T08:09:19.650Z,4.50
2023-06-11T08:11:48.581Z,4.63
2023-06-11T08:14:19.978Z,4.30
2023-06-11T08:16:47.801Z,4.47
2023-06-11T08:19:16.033Z,4.60
2023-06-11T08:21:45.096Z,4.43
2023-06-11T08:24:13.056Z,4.10
2023-06-11T08:26:42.417Z,3.93
2023-06-11T08:29:10.635Z,4.13
2023-06-11T08:31:38.553Z,4.30
2023-06-11T08:34:06.270Z,3.93
2023-06-11T08:36:35.068Z,4.60
2023-06-11T08:39:02.830Z,4.10
2023-06-11T08:41:30.999Z,4.40
2023-06-11T08:44:00.628Z,5.20
2023-06-11T08:46:28.699Z,5.10
2023-06-11T08:49:00.693Z,4.83
2023-06-11T08:51:28.714Z,5.33
2023-06-11T08:53:56.499Z,4.40
2023-06-11T08:56:26.962Z,5.37
2023-06-11T08:58:54.984Z,4.70
2023-06-11T09:01:25.693Z,4.77
2023-06-11T09:03:53.882Z,6.03
2023-06-11T09:06:22.500Z,4.40
2023-06-11T09:08:58.996Z,4.90
2023-06-11T09:11:32.221Z,4.90
2023-06-11T09:14:00.512Z,4.10
2023-06-11T09:16:30.425Z,4.60
2023-06-11T09:18:58.616Z,4.37
2023-06-11T09:21:27.118Z,4.60
2023-06-11T09:23:56.096Z,4.33
2023-06-11T09:26:24.235Z,4.80
2023-06-11T09:28:54.418Z,6.00
2023-06-11T09:31:22.856Z,5.50
2023-06-11T09:33:54.525Z,5.30
2023-06-11T09:36:23.968Z,4.70
2023-06-11T09:38:51.876Z,4.80
2023-06-11T09:41:20.664Z,6.40
2023-06-11T09:43:53.024Z,6.37
2023-06-11T09:46:21.411Z,5.60
2023-06-11T09:48:50.163Z,5.33
2023-06-11T09:51:25.013Z,4.93
2023-06-11T09:53:52.949Z,4.80
2023-06-11T09:56:21.049Z,4.43
2023-06-11T09:58:50.163Z,4.43
2023-06-11T10:01:18.443Z,5.50
2023-06-11T10:03:46.426Z,4.80
2023-06-11T10:06:18.986Z,4.13
2023-06-11T10:08:50.171Z,4.87
2023-06-11T10:11:21.492Z,6.00
2023-06-11T10:13:58.212Z,5.80
2023-06-11T10:16:26.888Z,4.43
2023-06-11T10:19:04.129Z,5.70
2023-06-11T10:21:35.061Z,5.30
2023-06-11T10:24:04.747Z,6.27
2023-06-11T10:26:37.232Z,5.73
2023-06-11T10:29:11.619Z,5.63
2023-06-11T10:31:40.977Z,5.30
2023-06-11T10:34:08.972Z,7.43
2023-06-11T10:36:38.122Z,8.90
2023-06-11T10:39:10.041Z,5.07
2023-06-11T10:41:38.808Z,6.40
2023-06-11T10:44:06.573Z,7.60
2023-06-11T10:46:34.754Z,6.83
2023-06-11T10:49:02.695Z,6.60
2023-06-11T10:51:40.373Z,6.33
2023-06-11T10:54:10.038Z,6.00
2023-06-11T10:56:38.911Z,6.00
2023-06-11T10:59:10.357Z,7.27
2023-06-11T11:01:39.012Z,5.77
2023-06-11T11:04:06.849Z,5.10
2023-06-11T11:06:38.051Z,5.87
2023-06-11T11:09:05.857Z,5.97
2023-06-11T11:11:35.313Z,6.03
2023-06-11T11:14:04.585Z,5.90
2023-06-11T11:16:32.845Z,4.93
2023-06-11T11:19:00.647Z,6.10
2023-06-11T11:21:31.704Z,5.70
2023-06-11T11:23:59.769Z,6.10
2023-06-11T11:26:28.405Z,6.30
2023-06-11T11:28:57.548Z,6.13
2023-06-11T11:31:25.582Z,11.70
2023-06-11T11:33:53.330Z,12.63
2023-06-11T11:36:21.186Z,6.37
2023-06-11T11:38:49.253Z,7.03
2023-06-11T11:41:17.039Z,8.40
2023-06-11T11:43:45.961Z,5.90
2023-06-11T11:46:18.951Z,9.73
2023-06-11T11:48:47.332Z,8.07
2023-06-11T11:51:16.448Z,6.20
2023-06-11T11:53:45.120Z,8.00
2023-06-11T11:56:12.936Z,6.60
2023-06-11T11:58:41.666Z,7.20
2023-06-11T12:01:17.576Z,6.90
2023-06-11T12:03:56.712Z,7.90
2023-06-11T12:06:25.236Z,8.77
2023-06-11T12:08:53.057Z,8.43
2023-06-11T12:11:21.044Z,7.67
2023-06-11T12:13:48.798Z,8.00
2023-06-11T12:16:17.052Z,8.30
2023-06-11T12:18:46.590Z,8.20
2023-06-11T12:21:14.919Z,7.63
2023-06-11T12:23:42.713Z,7.00
2023-06-11T12:26:10.685Z,7.50
2023-06-11T12:28:38.487Z,8.10
2023-06-11T12:31:06.250Z,7.90
2023-06-11T12:33:34.266Z,7.93
2023-06-11T12:36:03.597Z,8.87
2023-06-11T12:38:31.487Z,8.20
2023-06-11T12:40:59.325Z,7.87
2023-06-11T12:43:27.495Z,7.77
2023-06-11T12:45:55.507Z,9.13
2023-06-11T12:48:23.348Z,8.70
2023-06-11T12:50:51.645Z,11.87
2023-06-11T12:53:20.924Z,9.90
2023-06-11T12:55:48.846Z,9.57
2023-06-11T12:58:16.817Z,9.37
2023-06-11T13:00:44.591Z,8.50
2023-06-11T13:03:12.374Z,8.77
2023-06-11T13:05:40.625Z,8.03
2023-06-11T13:08:08.388Z,8.13
2023-06-11T13:10:40.344Z,8.77
2023-06-11T13:13:08.491Z,8.47
2023-06-11T13:15:36.299Z,8.60
2023-06-11T13:18:04.669Z,8.33
2023-06-11T13:20:32.616Z,8.00
2023-06-11T13:23:00.996Z,9.90
2023-06-11T13:25:29.108Z,13.47
2023-06-11T13:27:58.401Z,8.33
2023-06-11T13:30:26.541Z,7.87
2023-06-11T13:32:54.866Z,8.70
2023-06-11T13:35:22.760Z,8.67
2023-06-11T13:37:51.445Z,8.27
2023-06-11T13:40:20.258Z,8.80
2023-06-11T13:42:48.218Z,8.60
2023-06-11T13:45:17.459Z,8.37
2023-06-11T13:47:45.799Z,8.57
2023-06-11T13:50:14.126Z,8.40
2023-06-11T13:52:42.409Z,8.63
2023-06-11T13:55:12.079Z,7.70
2023-06-11T13:57:40.036Z,8.10
2023-06-11T14:00:08.599Z,8.40
2023-06-11T14:02:44.589Z,8.57
2023-06-11T14:05:12.555Z,8.03
2023-06-11T14:07:40.517Z,8.33
2023-06-11T14:10:09.542Z,8.50
2023-06-11T14:12:37.607Z,9.73
2023-06-11T14:15:05.567Z,8.93
2023-06-11T14:17:35.839Z,9.20
2023-06-11T14:20:06.262Z,8.83
2023-06-11T14:22:34.555Z,9.97
2023-06-11T14:25:02.678Z,8.80
2023-06-11T14:27:30.713Z,8.70
2023-06-11T14:29:58.571Z,8.60
2023-06-11T14:32:30.441Z,9.10
2023-06-11T14:34:58.470Z,8.07
2023-06-11T14:37:27.580Z,8.40
2023-06-11T14:39:55.782Z,8.87
2023-06-11T14:42:23.592Z,9.40
2023-06-11T14:44:51.809Z,8.70
2023-06-11T14:47:19.723Z,8.57
2023-06-11T14:49:47.664Z,8.30
2023-06-11T14:52:16.080Z,7.23
2023-06-11T14:54:45.560Z,7.50
2023-06-11T14:57:14.092Z,8.00
2023-06-11T14:59:44.297Z,7.17
2023-06-11T15:02:15.222Z,7.53
2023-06-11T15:04:44.175Z,6.97
2023-06-11T15:07:29.373Z,7.63
2023-06-11T15:10:03.755Z,7.60
2023-06-11T15:12:31.965Z,7.70
2023-06-11T15:15:01.251Z,8.50
2023-06-11T15:17:30.962Z,8.30
2023-06-11T15:20:00.093Z,8.63
2023-06-11T15:22:28.085Z,8.37
2023-06-11T15:24:56.370Z,8.30
2023-06-11T15:27:25.454Z,8.43
2023-06-11T15:29:53.377Z,7.90
2023-06-11T15:32:21.404Z,7.77
2023-06-11T15:34:49.388Z,8.43
2023-06-11T15:37:18.390Z,8.00
2023-06-11T15:39:50.851Z,7.67
2023-06-11T15:42:18.971Z,7.97
2023-06-11T15:44:49.427Z,7.50
2023-06-11T15:47:18.447Z,7.90
2023-06-11T15:49:46.353Z,6.90
2023-06-11T15:52:14.445Z,8.43
2023-06-11T15:54:42.430Z,7.27
2023-06-11T15:57:11.019Z,8.20
2023-06-11T15:59:39.895Z,8.80
2023-06-11T16:02:09.577Z,8.03
2023-06-11T16:04:37.729Z,8.43
2023-06-11T16:07:07.693Z,8.27
2023-06-11T16:09:36.219Z,8.03
2023-06-11T16:12:04.543Z,8.30
2023-06-11T16:14:33.059Z,8.40
2023-06-11T16:17:01.429Z,8.20
2023-06-11T16:19:30.594Z,8.60
2023-06-11T16:21:58.681Z,7.60
2023-06-11T16:24:26.929Z,7.50
2023-06-11T16:26:54.818Z,8.77
2023-06-11T16:29:22.688Z,7.70
2023-06-11T16:31:50.856Z,8.37
2023-06-11T16:34:18.664Z,8.80
2023-06-11T16:36:47.797Z,7.80
2023-06-11T16:39:25.440Z,8.50
2023-06-11T16:41:55.089Z,7.77
2023-06-11T16:44:22.837Z,8.87
2023-06-11T16:46:50.770Z,7.93
2023-06-11T16:49:18.645Z,8.70
2023-06-11T16:51:48.341Z,7.80
2023-06-11T16:54:18.676Z,8.70
2023-06-11T16:56:47.193Z,7.73
2023-06-11T16:59:15.438Z,7.60
2023-06-11T17:01:43.399Z,7.97
2023-06-11T17:04:11.323Z,8.20
2023-06-11T17:06:39.712Z,8.80
2023-06-11T17:09:09.107Z,8.70
2023-06-11T17:11:37.178Z,8.40
2023-06-11T17:14:05.136Z,7.67
2023-06-11T17:16:33.031Z,8.30
2023-06-11T17:19:01.026Z,7.53
2023-06-11T17:21:29.347Z,7.50
2023-06-11T17:23:58.407Z,8.33
2023-06-11T17:26:28.441Z,6.97
2023-06-11T17:28:58.336Z,7.17
2023-06-11T17:31:26.336Z,7.30
2023-06-11T17:33:54.183Z,8.13
2023-06-11T17:36:22.571Z,7.80
2023-06-11T17:38:50.427Z,8.20
2023-06-11T17:41:18.390Z,7.50
2023-06-11T17:43:47.611Z,7.73
2023-06-11T17:46:16.791Z,8.03
2023-06-11T17:48:44.912Z,8.10
2023-06-11T17:51:12.746Z,7.37
2023-06-11T17:53:40.608Z,8.70
2023-06-11T17:56:08.540Z,8.20
2023-06-11T17:58:40.885Z,8.60
2023-06-11T18:01:10.278Z,8.43
2023-06-11T18:03:40.525Z,8.10
2023-06-11T18:06:08.290Z,9.40
2023-06-11T18:08:36.239Z,8.50
2023-06-11T18:11:04.186Z,8.10
2023-06-11T18:13:32.003Z,8.03
2023-06-11T18:15:59.991Z,7.70
2023-06-11T18:18:29.271Z,8.30
2023-06-11T18:20:57.049Z,7.60
2023-06-11T18:23:24.882Z,8.60
2023-06-11T18:25:53.154Z,7.73
2023-06-11T18:28:21.427Z,8.10
2023-06-11T18:30:49.267Z,8.00
2023-06-11T18:33:18.047Z,8.43
2023-06-11T18:35:47.810Z,7.87
2023-06-11T18:38:15.904Z,9.23
2023-06-11T18:40:44.548Z,8.07
2023-06-11T18:43:12.429Z,6.90
2023-06-11T18:45:40.399Z,7.67
2023-06-11T18:48:08.618Z,7.50
2023-06-11T18:50:36.864Z,6.80
2023-06-11T18:53:05.936Z,7.50
2023-06-11T18:55:33.973Z,8.13
2023-06-11T18:58:04.034Z,7.50
2023-06-11T19:00:32.174Z,8.37
2023-06-11T19:03:00.395Z,9.70
2023-06-11T19:05:28.673Z,8.40
2023-06-11T19:07:56.506Z,8.63
2023-06-11T19:10:25.917Z,6.60
2023-06-11T19:12:54.895Z,7.13
2023-06-11T19:15:22.871Z,7.10
2023-06-11T19:17:51.078Z,8.23
2023-06-11T19:20:18.828Z,8.20
2023-06-11T19:22:47.066Z,7.60
2023-06-11T19:25:14.953Z,7.93
2023-06-11T19:27:44.100Z,8.17
2023-06-11T19:30:15.565Z,7.47
2023-06-11T19:32:44.736Z,7.60
2023-06-11T19:35:12.663Z,7.60
2023-06-11T19:37:42.503Z,7.33
2023-06-11T19:40:12.207Z,7.73
2023-06-11T19:42:40.735Z,8.40
2023-06-11T19:45:11.164Z,6.73
2023-06-11T19:47:39.284Z,7.30
2023-06-11T19:50:07.708Z,8.00
2023-06-11T19:52:36.075Z,7.85
2023-06-11T19:55:03.937Z,9.63
2023-06-11T19:57:32.034Z,8.13
2023-06-11T20:00:00.967Z,8.37
2023-06-11T20:02:31.170Z,8.70
2023-06-11T20:04:59.112Z,7.53
2023-06-11T20:07:27.179Z,7.40
2023-06-11T20:09:55.351Z,7.77
2023-06-11T20:12:23.211Z,7.70
2023-06-11T20:14:52.468Z,8.07
2023-06-11T20:17:20.269Z,7.83
2023-06-11T20:19:50.171Z,7.83
2023-06-11T20:22:18.493Z,7.60
2023-06-11T20:24:46.483Z,7.50
2023-06-11T20:27:14.629Z,8.43
2023-06-11T20:29:42.464Z,7.90
2023-06-11T20:32:10.849Z,7.53
2023-06-11T20:34:38.724Z,7.87
2023-06-11T20:37:08.497Z,7.50
2023-06-11T20:39:36.371Z,7.13
2023-06-11T20:42:04.529Z,7.40
2023-06-11T20:44:32.279Z,7.60
2023-06-11T20:47:00.388Z,7.80
2023-06-11T20:49:28.232Z,7.53
2023-06-11T20:51:56.265Z,7.80
2023-06-11T20:54:25.577Z,8.17
2023-06-11T20:56:53.641Z,7.37
2023-06-11T20:59:21.533Z,7.57
2023-06-11T21:01:49.325Z,7.53
2023-06-11T21:04:17.171Z,7.17
2023-06-11T21:06:45.360Z,7.87
2023-06-11T21:09:13.169Z,7.40
2023-06-11T21:11:42.672Z,7.97
2023-06-11T21:14:14.861Z,7.97
2023-06-11T21:16:43.699Z,8.50
2023-06-11T21:19:13.362Z,7.33
2023-06-11T21:21:41.900Z,8.10
2023-06-11T21:24:09.935Z,8.00
2023-06-11T21:26:38.162Z,9.20
2023-06-11T21:29:07.576Z,9.93
2023-06-11T21:31:36.035Z,8.37
2023-06-11T21:34:03.898Z,9.33
2023-06-11T21:36:31.858Z,9.10
2023-06-11T21:38:59.702Z,8.20
2023-06-11T21:41:27.784Z,8.10
2023-06-11T21:43:55.706Z,8.37
2023-06-11T21:46:25.329Z,9.13
2023-06-11T21:48:53.568Z,7.90
2023-06-11T21:51:21.786Z,8.97
2023-06-11T21:53:49.753Z,8.00
2023-06-11T21:56:17.929Z,8.07
2023-06-11T21:58:45.810Z,8.07
2023-06-11T22:01:13.867Z,7.90
2023-06-11T22:03:43.499Z,8.57
2023-06-11T22:06:11.359Z,8.50
2023-06-11T22:08:39.086Z,8.10
2023-06-11T22:11:07.242Z,8.43
2023-06-11T22:13:35.045Z,8.60
2023-06-11T22:16:03.017Z,7.90
2023-06-11T22:18:34.254Z,8.40
2023-06-11T22:21:03.640Z,8.40
2023-06-11T22:23:49.561Z,9.40
2023-06-11T22:26:19.167Z,9.73
2023-06-11T22:28:47.120Z,10.03
2023-06-11T22:31:15.343Z,9.63
2023-06-11T22:33:44.717Z,9.07
2023-06-11T22:36:14.209Z,8.27
2023-06-11T22:38:44.029Z,8.07
2023-06-11T22:41:11.954Z,8.20
2023-06-11T22:43:39.705Z,7.27
2023-06-11T22:46:07.830Z,8.97
2023-06-11T22:48:36.221Z,7.93
2023-06-11T22:51:10.447Z,9.57
2023-06-11T22:53:39.861Z,8.17
2023-06-11T22:58:35.856Z,7.90
2023-06-11T23:01:06.297Z,8.60
2023-06-11T23:03:34.452Z,7.83
2023-06-11T23:06:02.390Z,8.27
2023-06-11T23:08:32.216Z,7.13
2023-06-11T23:11:01.724Z,8.37
2023-06-11T23:13:29.695Z,8.00
2023-06-11T23:15:59.188Z,7.50
2023-06-11T23:18:31.260Z,8.23
2023-06-11T23:20:59.470Z,7.80
2023-06-11T23:23:31.288Z,7.63
2023-06-11T23:26:01.613Z,7.90
2023-06-11T23:28:29.992Z,7.77
2023-06-11T23:30:58.410Z,7.40
2023-06-11T23:33:26.498Z,7.70
2023-06-11T23:35:54.479Z,8.20
2023-06-11T23:38:22.239Z,7.90
2023-06-11T23:40:50.691Z,7.33
2023-06-11T23:43:19.868Z,7.97
2023-06-11T23:45:47.808Z,8.60
2023-06-11T23:48:15.856Z,7.53
2023-06-11T23:50:44.709Z,8.30
2023-06-11T23:53:12.581Z,9.33
2023-06-11T23:55:42.883Z,8.60
2023-06-11T23:58:22.049Z,9.47
